Time,TemperatureF,DewpointF,PressureIn,WindDirection,WindDirectionDegrees,WindSpeedMPH,WindSpeedGustMPH,Humidity,HourlyPrecipIn,Conditions,Clouds,dailyrainin,SoftwareType,DateUTC
2013-03-07 00:00:00,3.9,-0.1,30.35,WNW,296,0.0,0.0,83,0.00,,CLR,0.00,VWS V14.01,2013-03-07 06:00:00,
2013-03-07 00:01:00,4.1,0.1,30.35,WNW,296,0.0,0.0,83,0.00,,SCT120,0.00,VWS V14.01,2013-03-07 06:01:00,
2013-03-07 00:06:00,3.7,-0.6,30.35,WNW,296,0.0,0.0,82,0.00,,SCT120,0.00,VWS V14.01,2013-03-07 06:06:00,
2013-03-07 00:11:00,3.5,-0.8,30.35,WNW,296,0.0,0.0,82,0.00,,SCT120,0.00,VWS V14.01,2013-03-07 06:11:00,
2013-03-07 00:15:00,1.8,-2.9,30.35,WNW,296,0.0,0.0,80,0.00,,CLR,0.00,VWS V14.01,2013-03-07 06:15:00,
2013-03-07 00:16:00,2.0,-2.7,30.35,WNW,296,0.0,0.0,80,0.00,,SCT120,0.00,VWS V14.01,2013-03-07 06:16:00,
2013-03-07 00:22:00,1.3,-3.4,30.35,WNW,296,0.0,0.0,80,0.00,,SCT120,0.00,VWS V14.01,2013-03-07 06:22:00,
2013-03-07 00:27:00,0.9,-3.8,30.35,WNW,296,0.0,0.0,80,0.00,,SCT120,0.00,VWS V14.01,2013-03-07 06:27:00,
2013-03-07 00:30:00,1.1,-3.1,30.35,WNW,296,0.0,0.0,82,0.00,,CLR,0.00,VWS V14.01,2013-03-07 06:30:00,
2013-03-07 00:32:00,1.1,-3.1,30.35,WNW,296,0.0,0.0,82,0.00,,SCT120,0.00,VWS V14.01,2013-03-07 06:32:00,
2013-03-07 00:37:00,1.3,-2.9,30.35,WNW,296,0.0,0.0,82,0.00,,SCT120,0.00,VWS V14.01,2013-03-07 06:37:00,
2013-03-07 00:42:00,1.3,-2.9,30.35,WNW,296,0.0,0.0,82,0.00,,SCT120,0.00,VWS V14.01,2013-03-07 06:42:00,
2013-03-07 00:45:00,1.3,-2.9,30.35,WNW,296,0.0,0.0,82,0.00,,CLR,0.00,VWS V14.01,2013-03-07 06:45:00,
2013-03-07 00:47:00,1.3,-2.9,30.35,WNW,296,0.0,0.0,82,0.00,,SCT120,0.00,VWS V14.01,2013-03-07 06:47:00,
2013-03-07 00:52:00,1.1,-3.1,30.35,WNW,296,0.0,0.0,82,0.00,,SCT120,0.00,VWS V14.01,2013-03-07 06:52:00,
2013-03-07 00:57:00,0.7,-3.8,30.35,WNW,296,0.0,0.0,81,0.00,,SCT120,0.00,VWS V14.01,2013-03-07 06:57:00,
2013-03-07 01:00:00,0.5,-3.9,30.35,WNW,296,0.0,0.0,81,0.00,,CLR,0.00,VWS V14.01,2013-03-07 07:00:00,
2013-03-07 01:02:00,0.5,-3.9,30.35,WNW,296,0.0,0.0,81,0.00,,SCT120,0.00,VWS V14.01,2013-03-07 07:02:00,
2013-03-07 01:07:00,0.5,-3.9,30.35,WNW,296,0.0,0.0,81,0.00,,SCT120,0.00,VWS V14.01,2013-03-07 07:07:00,
2013-03-07 01:12:00,0.7,-3.5,30.35,WNW,296,0.0,0.0,82,0.00,,SCT120,0.00,VWS V14.01,2013-03-07 07:12:00,
2013-03-07 01:15:00,0.7,-3.8,30.34,WNW,296,0.0,0.0,81,0.00,,CLR,0.00,VWS V14.01,2013-03-07 07:15:00,
2013-03-07 01:17:00,0.7,-3.8,30.34,WNW,296,0.0,0.0,81,0.00,,SCT120,0.00,VWS V14.01,2013-03-07 07:17:00,
2013-03-07 01:22:00,0.3,-4.4,30.34,WNW,296,0.0,0.0,80,0.00,,SCT120,0.00,VWS V14.01,2013-03-07 07:22:00,
2013-03-07 01:27:00,0.1,-4.3,30.34,WNW,296,0.0,0.0,81,0.00,,SCT120,0.00,VWS V14.01,2013-03-07 07:27:00,
2013-03-07 01:30:00,0.1,-4.4,30.35,WNW,296,0.0,0.0,81,0.00,,CLR,0.00,VWS V14.01,2013-03-07 07:30:00,
2013-03-07 01:32:00,0.1,-4.4,30.35,WNW,296,0.0,0.0,81,0.00,,BKN120,0.00,VWS V14.01,2013-03-07 07:32:00,
2013-03-07 01:37:00,-0.4,-5.1,30.35,WNW,296,0.0,0.0,80,0.00,,BKN120,0.00,VWS V14.01,2013-03-07 07:37:00,
2013-03-07 01:42:00,-1.0,-5.7,30.35,WNW,296,0.0,0.0,80,0.00,,BKN120,0.00,VWS V14.01,2013-03-07 07:42:00,
2013-03-07 01:45:00,-1.2,-5.9,30.36,WNW,296,0.0,0.0,80,0.00,,CLR,0.00,VWS V14.01,2013-03-07 07:45:00,
2013-03-07 01:48:00,-1.2,-5.9,30.36,WNW,296,0.0,0.0,80,0.00,,BKN120,0.00,VWS V14.01,2013-03-07 07:48:00,
2013-03-07 01:53:00,-1.0,-5.4,30.36,WNW,296,0.0,0.0,81,0.00,,BKN120,0.00,VWS V14.01,2013-03-07 07:53:00,
2013-03-07 01:58:00,-1.6,-6.5,30.36,WNW,296,0.0,0.0,79,0.00,,BKN120,0.00,VWS V14.01,2013-03-07 07:58:00,
2013-03-07 02:00:00,-1.8,-6.7,30.35,WNW,296,0.0,0.0,79,0.00,,CLR,0.00,VWS V14.01,2013-03-07 08:00:00,
2013-03-07 02:03:00,-1.8,-6.7,30.35,WNW,296,0.0,0.0,79,0.00,,BKN110,0.00,VWS V14.01,2013-03-07 08:03:00,
2013-03-07 02:08:00,-1.6,-6.0,30.35,WNW,296,0.0,0.0,81,0.00,,BKN110,0.00,VWS V14.01,2013-03-07 08:08:00,
2013-03-07 02:13:00,-1.4,-5.8,30.35,WNW,296,0.0,0.0,81,0.00,,BKN110,0.00,VWS V14.01,2013-03-07 08:13:00,
2013-03-07 02:15:00,-1.2,-5.6,30.35,WNW,296,0.0,0.0,81,0.00,,CLR,0.00,VWS V14.01,2013-03-07 08:15:00,
2013-03-07 02:18:00,-1.2,-5.6,30.35,WNW,296,0.0,0.0,81,0.00,,BKN110,0.00,VWS V14.01,2013-03-07 08:18:00,
2013-03-07 02:23:00,-1.0,-5.7,30.35,WNW,296,0.0,0.0,80,0.00,,BKN110,0.00,VWS V14.01,2013-03-07 08:23:00,
2013-03-07 02:28:00,-0.8,-5.5,30.35,WNW,296,0.0,0.0,80,0.00,,BKN110,0.00,VWS V14.01,2013-03-07 08:28:00,
2013-03-07 02:30:00,-1.0,-5.9,30.35,WNW,296,0.0,0.0,79,0.00,,CLR,0.00,VWS V14.01,2013-03-07 08:30:00,
2013-03-07 02:33:00,-1.0,-5.9,30.35,WNW,296,0.0,0.0,79,0.00,,SCT110,0.00,VWS V14.01,2013-03-07 08:33:00,
2013-03-07 02:39:00,-1.4,-6.3,30.35,WNW,296,0.0,0.0,79,0.00,,SCT110,0.00,VWS V14.01,2013-03-07 08:39:00,
2013-03-07 02:44:00,-1.6,-6.5,30.35,WNW,296,0.0,0.0,79,0.00,,SCT110,0.00,VWS V14.01,2013-03-07 08:44:00,
2013-03-07 02:45:00,-1.6,-6.5,30.35,WNW,296,0.0,0.0,79,0.00,,CLR,0.00,VWS V14.01,2013-03-07 08:45:00,
2013-03-07 02:49:00,-1.6,-6.5,30.35,WNW,296,0.0,0.0,79,0.00,,SCT110,0.00,VWS V14.01,2013-03-07 08:49:00,
2013-03-07 02:54:00,-1.4,-6.3,30.35,WNW,296,0.0,0.0,79,0.00,,SCT110,0.00,VWS V14.01,2013-03-07 08:54:00,
2013-03-07 02:59:00,-2.2,-7.4,30.35,WNW,296,0.0,0.0,78,0.00,,SCT110,0.00,VWS V14.01,2013-03-07 08:59:00,
2013-03-07 03:00:00,-2.4,-7.6,30.35,WNW,296,0.0,0.0,78,0.00,,CLR,0.00,VWS V14.01,2013-03-07 09:00:00,
2013-03-07 03:05:00,-2.6,-7.8,30.35,WNW,296,0.0,0.0,78,0.00,,SCT110,0.00,VWS V14.01,2013-03-07 09:05:00,
2013-03-07 03:10:00,-2.6,-7.5,30.35,WNW,296,0.0,0.0,79,0.00,,SCT110,0.00,VWS V14.01,2013-03-07 09:10:00,
2013-03-07 03:15:00,-2.6,-7.5,30.35,WNW,296,0.0,0.0,79,0.00,,SCT110,0.00,VWS V14.01,2013-03-07 09:15:00,
2013-03-07 03:20:00,-2.8,-7.9,30.35,WNW,296,0.0,0.0,78,0.00,,SCT110,0.00,VWS V14.01,2013-03-07 09:20:00,
2013-03-07 03:25:00,-3.1,-8.5,30.35,WNW,296,0.0,0.0,77,0.00,,SCT110,0.00,VWS V14.01,2013-03-07 09:25:00,
2013-03-07 03:30:00,-3.3,-8.7,30.35,WNW,296,0.0,0.0,77,0.00,,SCT110,0.00,VWS V14.01,2013-03-07 09:30:00,
2013-03-07 03:35:00,-3.3,-8.7,30.36,WNW,296,0.0,0.0,77,0.00,,SCT110,0.00,VWS V14.01,2013-03-07 09:35:00,
2013-03-07 03:40:00,-3.3,-8.7,30.36,WNW,296,0.0,0.0,77,0.00,,SCT110,0.00,VWS V14.01,2013-03-07 09:40:00,
2013-03-07 03:45:00,-3.5,-8.9,30.36,WNW,296,0.0,0.0,77,0.00,,SCT110,0.00,VWS V14.01,2013-03-07 09:45:00,
2013-03-07 03:50:00,-3.7,-9.1,30.35,WNW,296,0.0,0.0,77,0.00,,SCT110,0.00,VWS V14.01,2013-03-07 09:50:00,
2013-03-07 03:56:00,-3.9,-9.5,30.35,WNW,296,0.0,0.0,76,0.00,,SCT110,0.00,VWS V14.01,2013-03-07 09:56:00,
2013-03-07 04:00:00,-3.9,-9.3,30.36,WNW,296,0.0,0.0,77,0.00,,CLR,0.00,VWS V14.01,2013-03-07 10:00:00,
2013-03-07 04:01:00,-3.9,-9.3,30.35,WNW,296,0.0,0.0,77,0.00,,SCT110,0.00,VWS V14.01,2013-03-07 10:01:00,
2013-03-07 04:06:00,-4.1,-9.5,30.36,WNW,296,0.0,0.0,77,0.00,,SCT110,0.00,VWS V14.01,2013-03-07 10:06:00,
2013-03-07 04:11:00,-4.1,-9.5,30.36,WNW,296,0.0,0.0,77,0.00,,SCT110,0.00,VWS V14.01,2013-03-07 10:11:00,
2013-03-07 04:15:00,-3.9,-9.3,30.36,WNW,296,0.0,0.0,77,0.00,,CLR,0.00,VWS V14.01,2013-03-07 10:15:00,
2013-03-07 04:16:00,-3.9,-9.3,30.36,WNW,296,0.0,0.0,77,0.00,,SCT110,0.00,VWS V14.01,2013-03-07 10:16:00,
2013-03-07 04:21:00,-3.7,-8.8,30.36,WNW,296,0.0,0.0,78,0.00,,SCT110,0.00,VWS V14.01,2013-03-07 10:21:00,
2013-03-07 04:26:00,-3.5,-8.6,30.36,WNW,296,0.0,0.0,78,0.00,,SCT110,0.00,VWS V14.01,2013-03-07 10:26:00,
2013-03-07 04:30:00,-3.5,-8.6,30.36,WNW,296,0.0,0.0,78,0.00,,CLR,0.00,VWS V14.01,2013-03-07 10:30:00,
2013-03-07 04:32:00,-3.5,-8.6,30.36,WNW,296,0.0,0.0,78,0.00,,SCT110,0.00,VWS V14.01,2013-03-07 10:32:00,
2013-03-07 04:37:00,-3.5,-8.6,30.36,WNW,296,0.0,0.0,78,0.00,,SCT110,0.00,VWS V14.01,2013-03-07 10:37:00,
2013-03-07 04:42:00,-3.7,-9.1,30.36,WNW,296,0.0,0.0,77,0.00,,SCT110,0.00,VWS V14.01,2013-03-07 10:42:00,
2013-03-07 04:45:00,-3.9,-9.3,30.36,WNW,296,0.0,0.0,77,0.00,,CLR,0.00,VWS V14.01,2013-03-07 10:45:00,
2013-03-07 04:47:00,-3.9,-9.3,30.36,WNW,296,0.0,0.0,77,0.00,,SCT110,0.00,VWS V14.01,2013-03-07 10:47:00,
2013-03-07 04:52:00,-3.9,-9.3,30.36,WNW,296,0.0,0.0,77,0.00,,SCT110,0.00,VWS V14.01,2013-03-07 10:52:00,
2013-03-07 04:57:00,-4.3,-9.9,30.36,WNW,296,0.0,0.0,76,0.00,,SCT110,0.00,VWS V14.01,2013-03-07 10:57:00,
2013-03-07 05:00:00,-4.8,-10.4,30.36,WNW,296,0.0,0.0,76,0.00,,CLR,0.00,VWS V14.01,2013-03-07 11:00:00,
2013-03-07 05:02:00,-4.8,-10.4,30.36,WNW,296,0.0,0.0,76,0.00,,CLR,0.00,VWS V14.01,2013-03-07 11:02:00,
2013-03-07 05:07:00,-5.0,-10.6,30.36,WNW,296,0.0,0.0,76,0.00,,CLR,0.00,VWS V14.01,2013-03-07 11:07:00,
2013-03-07 05:12:00,-5.0,-10.6,30.36,WNW,296,0.0,0.0,76,0.00,,CLR,0.00,VWS V14.01,2013-03-07 11:12:00,
2013-03-07 05:15:00,-5.0,-10.4,30.37,WNW,296,0.0,0.0,77,0.00,,CLR,0.00,VWS V14.01,2013-03-07 11:15:00,
2013-03-07 05:17:00,-5.0,-10.4,30.37,WNW,296,0.0,0.0,77,0.00,,CLR,0.00,VWS V14.01,2013-03-07 11:17:00,
2013-03-07 05:22:00,-4.8,-10.1,30.37,WNW,296,0.0,0.0,77,0.00,,CLR,0.00,VWS V14.01,2013-03-07 11:22:00,
2013-03-07 05:27:00,-4.8,-10.1,30.37,WNW,296,0.0,0.0,77,0.00,,CLR,0.00,VWS V14.01,2013-03-07 11:27:00,
2013-03-07 05:30:00,-4.8,-10.1,30.37,WNW,296,0.0,0.0,77,0.00,,CLR,0.00,VWS V14.01,2013-03-07 11:30:00,
2013-03-07 05:32:00,-4.8,-10.1,30.37,WNW,296,0.0,0.0,77,0.00,,CLR,0.00,VWS V14.01,2013-03-07 11:32:00,
2013-03-07 05:38:00,-5.0,-10.4,30.37,WNW,296,0.0,0.0,77,0.00,,CLR,0.00,VWS V14.01,2013-03-07 11:38:00,
2013-03-07 05:43:00,-5.0,-10.4,30.37,WNW,297,0.0,0.0,77,0.00,,CLR,0.00,VWS V14.01,2013-03-07 11:43:00,
2013-03-07 05:45:00,-5.0,-10.6,30.37,WNW,297,0.0,0.0,76,0.00,,CLR,0.00,VWS V14.01,2013-03-07 11:45:00,
2013-03-07 05:48:00,-5.0,-10.6,30.37,WNW,297,0.0,0.0,76,0.00,,CLR,0.00,VWS V14.01,2013-03-07 11:48:00,
2013-03-07 05:53:00,-5.2,-10.8,30.37,WNW,298,0.0,0.0,76,0.00,,CLR,0.00,VWS V14.01,2013-03-07 11:53:00,
2013-03-07 05:58:00,-5.4,-11.3,30.37,WNW,298,0.0,0.0,75,0.00,,CLR,0.00,VWS V14.01,2013-03-07 11:58:00,
2013-03-07 06:00:00,-5.6,-11.5,30.38,WNW,298,0.0,0.0,75,0.00,,CLR,0.00,VWS V14.01,2013-03-07 12:00:00,
2013-03-07 06:03:00,-5.6,-11.5,30.38,WNW,298,0.0,0.0,75,0.00,,CLR,0.00,VWS V14.01,2013-03-07 12:03:00,
2013-03-07 06:08:00,-6.1,-11.9,30.38,WNW,298,0.0,0.0,75,0.00,,CLR,0.00,VWS V14.01,2013-03-07 12:08:00,
2013-03-07 06:13:00,-6.5,-12.3,30.38,WNW,298,0.0,0.0,75,0.00,,CLR,0.00,VWS V14.01,2013-03-07 12:13:00,
2013-03-07 06:15:00,-6.5,-12.3,30.38,WNW,298,0.0,0.0,75,0.00,,CLR,0.00,VWS V14.01,2013-03-07 12:15:00,
2013-03-07 06:18:00,-6.5,-12.3,30.38,WNW,298,0.0,0.0,75,0.00,,CLR,0.00,VWS V14.01,2013-03-07 12:18:00,
2013-03-07 06:24:00,-6.5,-12.3,30.38,WNW,298,0.0,0.0,75,0.00,,CLR,0.00,VWS V14.01,2013-03-07 12:24:00,
2013-03-07 06:29:00,-6.5,-12.3,30.38,WNW,298,0.0,0.0,75,0.00,,CLR,0.00,VWS V14.01,2013-03-07 12:29:00,
2013-03-07 06:30:00,-6.3,-12.1,30.39,WNW,298,0.0,0.0,75,0.00,,CLR,0.00,VWS V14.01,2013-03-07 12:30:00,
2013-03-07 06:35:00,-6.3,-12.1,30.39,WNW,298,0.0,0.0,75,0.00,,SCT070,0.00,VWS V14.01,2013-03-07 12:35:00,
2013-03-07 06:41:00,-6.3,-12.1,30.39,WNW,298,0.0,0.0,75,0.00,,SCT070,0.00,VWS V14.01,2013-03-07 12:41:00,
2013-03-07 06:45:00,-6.3,-12.1,30.39,WNW,298,0.0,0.0,75,0.00,,CLR,0.00,VWS V14.01,2013-03-07 12:45:00,
2013-03-07 06:46:00,-6.3,-12.1,30.39,WNW,298,0.0,0.0,75,0.00,,SCT070,0.00,VWS V14.01,2013-03-07 12:46:00,
2013-03-07 06:51:00,-6.3,-12.1,30.39,WNW,298,0.0,0.0,75,0.00,,SCT070,0.00,VWS V14.01,2013-03-07 12:51:00,
2013-03-07 06:56:00,-6.3,-11.9,30.39,WNW,298,0.0,0.0,76,0.00,,SCT070,0.00,VWS V14.01,2013-03-07 12:56:00,
2013-03-07 07:00:00,-5.6,-11.2,30.39,WNW,298,0.0,0.0,76,0.00,,CLR,0.00,VWS V14.01,2013-03-07 13:00:00,
2013-03-07 07:01:00,-5.9,-11.5,30.39,WNW,298,0.0,0.0,76,0.00,,SCT070,0.00,VWS V14.01,2013-03-07 13:01:00,
2013-03-07 07:06:00,-5.4,-11.0,30.39,WNW,298,0.0,0.0,76,0.00,,BKN001,0.00,VWS V14.01,2013-03-07 13:06:00,
2013-03-07 07:11:00,-5.6,-11.5,30.39,WNW,298,0.0,0.0,75,0.00,,BKN001,0.00,VWS V14.01,2013-03-07 13:11:00,
2013-03-07 07:15:00,-5.2,-10.8,30.39,WNW,298,0.0,0.0,76,0.00,,CLR,0.00,VWS V14.01,2013-03-07 13:15:00,
2013-03-07 07:16:00,-5.4,-11.0,30.39,WNW,298,0.0,0.0,76,0.00,,BKN001,0.00,VWS V14.01,2013-03-07 13:16:00,
2013-03-07 07:21:00,-5.0,-10.6,30.39,WNW,298,0.0,0.0,76,0.00,,BKN001,0.00,VWS V14.01,2013-03-07 13:21:00,
2013-03-07 07:26:00,-4.6,-10.2,30.39,WNW,298,0.0,0.0,76,0.00,,BKN001,0.00,VWS V14.01,2013-03-07 13:26:00,
2013-03-07 07:30:00,-3.9,-9.5,30.39,WNW,298,0.0,0.0,76,0.00,,CLR,0.00,VWS V14.01,2013-03-07 13:30:00,
2013-03-07 07:31:00,-4.1,-9.7,30.39,WNW,298,0.0,0.0,76,0.00,,BKN001,0.00,VWS V14.01,2013-03-07 13:31:00,
2013-03-07 07:36:00,-3.7,-9.4,30.39,WNW,298,0.0,0.0,76,0.00,,BKN001,0.00,VWS V14.01,2013-03-07 13:36:00,
2013-03-07 07:41:00,-3.5,-9.1,30.39,WNW,298,0.0,0.0,76,0.00,,BKN001,0.00,VWS V14.01,2013-03-07 13:41:00,
2013-03-07 07:45:00,-3.3,-9.0,30.39,WNW,298,0.0,0.0,76,0.00,,CLR,0.00,VWS V14.01,2013-03-07 13:45:00,
2013-03-07 07:47:00,-3.5,-9.1,30.39,WNW,298,0.0,0.0,76,0.00,,BKN001,0.00,VWS V14.01,2013-03-07 13:47:00,
2013-03-07 07:52:00,-2.8,-8.2,30.39,WNW,298,0.0,0.0,77,0.00,,BKN001,0.00,VWS V14.01,2013-03-07 13:52:00,
2013-03-07 07:57:00,-2.4,-7.8,30.39,WNW,298,0.0,0.0,77,0.00,,BKN001,0.00,VWS V14.01,2013-03-07 13:57:00,
2013-03-07 08:00:00,-1.6,-6.8,30.39,WNW,298,0.0,0.0,78,0.00,,CLR,0.00,VWS V14.01,2013-03-07 14:00:00,
2013-03-07 08:02:00,-1.8,-7.0,30.39,WNW,298,0.0,0.0,78,0.00,,CLR,0.00,VWS V14.01,2013-03-07 14:02:00,
2013-03-07 08:07:00,-1.2,-6.7,30.39,WNW,298,0.0,0.0,77,0.00,,CLR,0.00,VWS V14.01,2013-03-07 14:07:00,
2013-03-07 08:12:00,-0.8,-6.0,30.39,WNW,298,0.0,0.0,78,0.00,,CLR,0.00,VWS V14.01,2013-03-07 14:12:00,
2013-03-07 08:15:00,-0.4,-5.6,30.40,WNW,298,0.0,0.0,78,0.00,,CLR,0.00,VWS V14.01,2013-03-07 14:15:00,
2013-03-07 08:17:00,-0.4,-5.6,30.40,WNW,298,0.0,0.0,78,0.00,,CLR,0.00,VWS V14.01,2013-03-07 14:17:00,
2013-03-07 08:22:00,-0.4,-5.9,30.40,WNW,298,0.0,0.0,77,0.00,,CLR,0.00,VWS V14.01,2013-03-07 14:22:00,
2013-03-07 08:27:00,-0.2,-5.7,30.40,WNW,298,0.0,0.0,77,0.00,,CLR,0.00,VWS V14.01,2013-03-07 14:27:00,
2013-03-07 08:30:00,0.3,-4.9,30.39,WNW,298,0.0,0.0,78,0.00,,CLR,0.00,VWS V14.01,2013-03-07 14:30:00,
2013-03-07 08:32:00,0.1,-5.1,30.39,WNW,298,0.0,0.0,78,0.00,,CLR,0.00,VWS V14.01,2013-03-07 14:32:00,
2013-03-07 08:37:00,1.1,-3.9,30.39,WNW,298,0.0,0.0,79,0.00,,CLR,0.00,VWS V14.01,2013-03-07 14:37:00,
2013-03-07 08:42:00,2.4,-2.3,30.39,WNW,298,0.0,0.0,80,0.00,,CLR,0.00,VWS V14.01,2013-03-07 14:42:00,
2013-03-07 08:45:00,3.7,-1.1,30.40,WNW,298,0.0,0.0,80,0.00,,CLR,0.00,VWS V14.01,2013-03-07 14:45:00,
2013-03-07 08:47:00,3.7,-1.1,30.40,WNW,298,0.0,0.0,80,0.00,,CLR,0.00,VWS V14.01,2013-03-07 14:47:00,
2013-03-07 08:52:00,4.7,-0.1,30.40,WNW,298,0.0,0.0,80,0.00,,CLR,0.00,VWS V14.01,2013-03-07 14:52:00,
2013-03-07 08:57:00,4.5,-0.6,30.40,WNW,298,0.0,0.0,79,0.00,,CLR,0.00,VWS V14.01,2013-03-07 14:57:00,
2013-03-07 09:00:00,4.8,-0.3,30.40,WNW,298,0.0,0.0,79,0.00,,CLR,0.00,VWS V14.01,2013-03-07 15:00:00,
2013-03-07 09:03:00,4.7,-0.4,30.40,WNW,298,0.0,0.0,79,0.00,,CLR,0.00,VWS V14.01,2013-03-07 15:03:00,
2013-03-07 09:08:00,5.6,0.5,30.40,WNW,298,0.0,0.0,79,0.00,,CLR,0.00,VWS V14.01,2013-03-07 15:08:00,
2013-03-07 09:13:00,6.7,1.9,30.40,WNW,298,0.0,0.0,80,0.00,,CLR,0.00,VWS V14.01,2013-03-07 15:13:00,
2013-03-07 09:15:00,7.7,2.8,30.40,WNW,298,0.0,0.0,80,0.00,,CLR,0.00,VWS V14.01,2013-03-07 15:15:00,
2013-03-07 09:18:00,7.7,2.8,30.40,WNW,298,0.0,0.0,80,0.00,,CLR,0.00,VWS V14.01,2013-03-07 15:18:00,
2013-03-07 09:23:00,9.0,4.1,30.40,WNW,298,0.0,0.0,80,0.00,,CLR,0.00,VWS V14.01,2013-03-07 15:23:00,
2013-03-07 09:28:00,9.5,4.3,30.40,WNW,298,0.0,0.0,79,0.00,,CLR,0.00,VWS V14.01,2013-03-07 15:28:00,
2013-03-07 09:30:00,10.2,5.0,30.40,WNW,298,0.0,0.0,79,0.00,,CLR,0.00,VWS V14.01,2013-03-07 15:30:00,
2013-03-07 09:33:00,10.2,5.0,30.40,WNW,298,0.0,0.0,79,0.00,,CLR,0.00,VWS V14.01,2013-03-07 15:33:00,
2013-03-07 09:38:00,11.1,5.6,30.40,WNW,298,0.0,0.0,78,0.00,,CLR,0.00,VWS V14.01,2013-03-07 15:38:00,
2013-03-07 09:43:00,12.1,6.6,30.40,WNW,298,0.0,0.0,78,0.00,,CLR,0.00,VWS V14.01,2013-03-07 15:43:00,
2013-03-07 09:45:00,12.6,6.8,30.39,WNW,298,0.0,0.0,77,0.00,,CLR,0.00,VWS V14.01,2013-03-07 15:45:00,
2013-03-07 09:48:00,12.8,7.0,30.39,WNW,298,0.0,0.0,77,0.00,,CLR,0.00,VWS V14.01,2013-03-07 15:48:00,
2013-03-07 09:53:00,13.1,7.0,30.39,WNW,298,0.0,0.0,76,0.00,,CLR,0.00,VWS V14.01,2013-03-07 15:53:00,
2013-03-07 09:58:00,14.1,8.5,30.39,WNW,298,0.0,0.0,78,0.00,,CLR,0.00,VWS V14.01,2013-03-07 15:58:00,
2013-03-07 10:00:00,15.2,9.6,30.39,WNW,298,0.0,0.0,78,0.00,,CLR,0.00,VWS V14.01,2013-03-07 16:00:00,
2013-03-07 10:04:00,15.4,9.8,30.39,WNW,298,0.0,0.0,78,0.00,,CLR,0.00,VWS V14.01,2013-03-07 16:04:00,
2013-03-07 10:09:00,16.4,10.5,30.39,WNW,298,0.0,0.0,77,0.00,,CLR,0.00,VWS V14.01,2013-03-07 16:09:00,
2013-03-07 10:15:00,17.5,11.2,30.39,WNW,298,0.0,0.0,76,0.00,,CLR,0.00,VWS V14.01,2013-03-07 16:15:00,
2013-03-07 10:20:00,18.6,12.3,30.38,WNW,298,1.0,4.0,76,0.00,,CLR,0.00,VWS V14.01,2013-03-07 16:20:00,
2013-03-07 10:25:00,20.2,13.6,30.38,WNW,298,0.0,4.0,75,0.00,,CLR,0.00,VWS V14.01,2013-03-07 16:25:00,
2013-03-07 10:30:00,21.9,14.0,30.38,WNW,298,0.0,4.0,71,0.00,,CLR,0.00,VWS V14.01,2013-03-07 16:30:00,
2013-03-07 10:36:00,23.3,14.3,30.37,WNW,298,0.0,0.0,68,0.00,,CLR,0.00,VWS V14.01,2013-03-07 16:36:00,
2013-03-07 10:41:00,24.5,14.1,30.37,WNW,298,3.0,4.0,64,0.00,,CLR,0.00,VWS V14.01,2013-03-07 16:41:00,
2013-03-07 10:45:00,25.4,14.6,30.38,WSW,239,1.0,5.0,63,0.00,,CLR,0.00,VWS V14.01,2013-03-07 16:45:00,
2013-03-07 10:46:00,25.3,15.2,30.37,WSW,258,4.0,5.0,65,0.00,,CLR,0.00,VWS V14.01,2013-03-07 16:46:00,
2013-03-07 10:51:00,25.7,15.6,30.38,SSW,197,9.0,9.0,65,0.00,,CLR,0.00,VWS V14.01,2013-03-07 16:51:00,
2013-03-07 10:56:00,26.0,15.9,30.38,SSW,194,6.0,9.0,65,0.00,,CLR,0.00,VWS V14.01,2013-03-07 16:56:00,
2013-03-07 11:00:00,26.0,15.9,30.38,SSE,166,6.0,10.0,65,0.00,,CLR,0.00,VWS V14.01,2013-03-07 17:00:00,
2013-03-07 11:01:00,25.8,15.3,30.38,SSE,165,6.0,10.0,64,0.00,,CLR,0.00,VWS V14.01,2013-03-07 17:01:00,
2013-03-07 11:06:00,26.0,14.8,30.38,SSE,165,4.0,6.0,62,0.00,,CLR,0.00,VWS V14.01,2013-03-07 17:06:00,
2013-03-07 11:11:00,26.1,15.2,30.38,SSE,166,6.0,10.0,63,0.00,,CLR,0.00,VWS V14.01,2013-03-07 17:11:00,
2013-03-07 11:15:00,26.1,14.9,30.38,SSE,167,5.0,11.0,62,0.00,,CLR,0.00,VWS V14.01,2013-03-07 17:15:00,
2013-03-07 11:17:00,26.1,15.2,30.38,SSE,168,9.0,11.0,63,0.00,,CLR,0.00,VWS V14.01,2013-03-07 17:17:00,
2013-03-07 11:22:00,26.4,15.5,30.38,SSE,168,6.0,7.0,63,0.00,,CLR,0.00,VWS V14.01,2013-03-07 17:22:00,
2013-03-07 11:27:00,26.7,15.8,30.38,SSE,167,2.0,7.0,63,0.00,,CLR,0.00,VWS V14.01,2013-03-07 17:27:00,
2013-03-07 11:30:00,27.5,15.8,30.37,SSE,167,5.0,7.0,61,0.00,,CLR,0.00,VWS V14.01,2013-03-07 17:30:00,
2013-03-07 11:32:00,27.3,15.6,30.38,SSE,167,4.0,7.0,61,0.00,,CLR,0.00,VWS V14.01,2013-03-07 17:32:00,
2013-03-07 11:37:00,27.6,15.6,30.37,SSE,167,7.0,7.0,60,0.00,,CLR,0.00,VWS V14.01,2013-03-07 17:37:00,
2013-03-07 11:43:00,27.5,15.4,30.37,SSE,166,6.0,9.0,60,0.00,,CLR,0.00,VWS V14.01,2013-03-07 17:43:00,
2013-03-07 11:45:00,27.5,15.4,30.37,SSE,166,9.0,9.0,60,0.00,,CLR,0.00,VWS V14.01,2013-03-07 17:45:00,
2013-03-07 11:48:00,27.5,15.4,30.37,SSE,166,6.0,9.0,60,0.00,,CLR,0.00,VWS V14.01,2013-03-07 17:48:00,
2013-03-07 11:54:00,27.6,15.6,30.37,SSE,166,6.0,9.0,60,0.00,,CLR,0.00,VWS V14.01,2013-03-07 17:54:00,
2013-03-07 11:59:00,27.9,15.8,30.37,SSE,166,6.0,9.0,60,0.00,,CLR,0.00,VWS V14.01,2013-03-07 17:59:00,
2013-03-07 12:00:00,28.1,16.8,30.36,SSE,165,4.0,9.0,62,0.00,,CLR,0.00,VWS V14.01,2013-03-07 18:00:00,
2013-03-07 12:04:00,28.2,16.5,30.36,SSE,165,4.0,6.0,61,0.00,,CLR,0.00,VWS V14.01,2013-03-07 18:04:00,
2013-03-07 12:09:00,28.4,15.9,30.36,SSE,164,2.0,7.0,59,0.00,,CLR,0.00,VWS V14.01,2013-03-07 18:09:00,
2013-03-07 12:14:00,28.7,15.8,30.36,SSE,164,3.0,7.0,58,0.00,,CLR,0.00,VWS V14.01,2013-03-07 18:14:00,
2013-03-07 12:15:00,28.8,16.3,30.36,SSE,166,5.0,7.0,59,0.00,,CLR,0.00,VWS V14.01,2013-03-07 18:15:00,
2013-03-07 12:19:00,29.0,16.9,30.36,SSE,167,5.0,6.0,60,0.00,,CLR,0.00,VWS V14.01,2013-03-07 18:19:00,
2013-03-07 12:24:00,29.4,16.9,30.36,South,173,5.0,7.0,59,0.00,,CLR,0.00,VWS V14.01,2013-03-07 18:24:00,
2013-03-07 12:30:00,30.1,16.7,30.36,South,175,7.0,9.0,57,0.00,,CLR,0.00,VWS V14.01,2013-03-07 18:30:00,
2013-03-07 12:31:00,30.0,16.6,30.36,South,175,4.0,9.0,57,0.00,,CLR,0.00,VWS V14.01,2013-03-07 18:31:00,
2013-03-07 12:36:00,30.3,17.3,30.36,South,178,4.0,7.0,58,0.00,,CLR,0.00,VWS V14.01,2013-03-07 18:36:00,
2013-03-07 12:41:00,30.9,17.1,30.36,South,185,3.0,7.0,56,0.00,,CLR,0.00,VWS V14.01,2013-03-07 18:41:00,
2013-03-07 12:45:00,31.2,17.3,30.36,South,186,3.0,9.0,56,0.00,,CLR,0.00,VWS V14.01,2013-03-07 18:45:00,
2013-03-07 12:47:00,31.2,18.2,30.36,South,186,4.0,9.0,58,0.00,,CLR,0.00,VWS V14.01,2013-03-07 18:47:00,
2013-03-07 12:52:00,30.9,17.5,30.36,South,185,6.0,6.0,57,0.00,,CLR,0.00,VWS V14.01,2013-03-07 18:52:00,
2013-03-07 12:57:00,30.4,17.4,30.36,SSE,165,4.0,9.0,58,0.00,,CLR,0.00,VWS V14.01,2013-03-07 18:57:00,
2013-03-07 13:00:00,30.3,16.5,30.35,SSE,167,4.0,9.0,56,0.00,,CLR,0.00,VWS V14.01,2013-03-07 19:00:00,
2013-03-07 13:03:00,30.3,16.5,30.35,SSE,167,5.0,9.0,56,0.00,,CLR,0.00,VWS V14.01,2013-03-07 19:03:00,
2013-03-07 13:08:00,30.6,16.8,30.35,South,170,6.0,8.0,56,0.00,,CLR,0.00,VWS V14.01,2013-03-07 19:08:00,
2013-03-07 13:13:00,30.7,17.7,30.35,South,172,4.0,8.0,58,0.00,,CLR,0.00,VWS V14.01,2013-03-07 19:13:00,
2013-03-07 13:15:00,30.4,16.6,30.35,SSE,165,4.0,8.0,56,0.00,,CLR,0.00,VWS V14.01,2013-03-07 19:15:00,
2013-03-07 13:18:00,30.4,16.6,30.35,SSE,165,4.0,8.0,56,0.00,,CLR,0.00,VWS V14.01,2013-03-07 19:18:00,
2013-03-07 13:24:00,30.7,16.9,30.35,South,172,9.0,11.0,56,0.00,,CLR,0.00,VWS V14.01,2013-03-07 19:24:00,
2013-03-07 13:30:00,30.7,17.7,30.35,SSE,166,6.0,11.0,58,0.00,,CLR,0.00,VWS V14.01,2013-03-07 19:30:00,
2013-03-07 13:35:00,30.6,17.6,30.34,SSE,160,5.0,8.0,58,0.00,,CLR,0.00,VWS V14.01,2013-03-07 19:35:00,
2013-03-07 13:40:00,30.7,17.7,30.34,South,175,5.0,9.0,58,0.00,,CLR,0.00,VWS V14.01,2013-03-07 19:40:00,
2013-03-07 13:45:00,31.0,17.6,30.34,South,191,6.0,10.0,57,0.00,,CLR,0.00,VWS V14.01,2013-03-07 19:45:00,
2013-03-07 13:50:00,31.0,17.6,30.34,SSW,193,1.0,8.0,57,0.00,,CLR,0.00,VWS V14.01,2013-03-07 19:50:00,
2013-03-07 13:55:00,31.6,18.1,30.34,SSE,163,10.0,10.0,57,0.00,,CLR,0.00,VWS V14.01,2013-03-07 19:55:00,
2013-03-07 14:00:00,31.5,18.0,30.33,South,178,5.0,10.0,57,0.00,,CLR,0.00,VWS V14.01,2013-03-07 20:00:00,
2013-03-07 14:01:00,31.3,17.0,30.34,SSE,162,4.0,10.0,55,0.00,,CLR,0.00,VWS V14.01,2013-03-07 20:01:00,
2013-03-07 14:06:00,31.9,17.6,30.33,South,189,4.0,8.0,55,0.00,,CLR,0.00,VWS V14.01,2013-03-07 20:06:00,
2013-03-07 14:11:00,32.2,18.3,30.33,SSE,159,9.0,10.0,56,0.00,,CLR,0.00,VWS V14.01,2013-03-07 20:11:00,
2013-03-07 14:15:00,31.8,17.5,30.33,South,170,9.0,13.0,55,0.00,,CLR,0.00,VWS V14.01,2013-03-07 20:15:00,
2013-03-07 14:16:00,31.9,17.2,30.33,South,169,12.0,12.0,54,0.00,,CLR,0.00,VWS V14.01,2013-03-07 20:16:00,
2013-03-07 14:21:00,31.6,17.7,30.33,SSE,167,12.0,12.0,56,0.00,,CLR,0.00,VWS V14.01,2013-03-07 20:21:00,
2013-03-07 14:26:00,31.6,17.3,30.33,SSE,168,6.0,12.0,55,0.00,,CLR,0.00,VWS V14.01,2013-03-07 20:26:00,
2013-03-07 14:30:00,31.6,17.7,30.32,South,178,10.0,12.0,56,0.00,,CLR,0.00,VWS V14.01,2013-03-07 20:30:00,
2013-03-07 14:33:00,31.6,17.7,30.32,South,178,10.0,12.0,56,0.00,,CLR,0.00,VWS V14.01,2013-03-07 20:33:00,
2013-03-07 14:38:00,31.2,16.9,30.32,SSE,157,7.0,12.0,55,0.00,,CLR,0.00,VWS V14.01,2013-03-07 20:38:00,
2013-03-07 14:43:00,31.0,16.7,30.32,SSE,151,7.0,12.0,55,0.00,,CLR,0.00,VWS V14.01,2013-03-07 20:43:00,
2013-03-07 14:45:00,31.0,16.3,30.33,SSE,156,6.0,12.0,54,0.00,,CLR,0.00,VWS V14.01,2013-03-07 20:45:00,
2013-03-07 14:48:00,31.0,16.3,30.33,SSE,156,5.0,6.0,54,0.00,,CLR,0.00,VWS V14.01,2013-03-07 20:48:00,
2013-03-07 14:53:00,30.9,16.6,30.33,SSE,160,4.0,11.0,55,0.00,,CLR,0.00,VWS V14.01,2013-03-07 20:53:00,
2013-03-07 14:58:00,30.6,16.8,30.33,SSE,147,7.0,12.0,56,0.00,,CLR,0.00,VWS V14.01,2013-03-07 20:58:00,
2013-03-07 15:00:00,30.7,16.5,30.33,SSE,161,8.0,12.0,55,0.00,,CLR,0.00,VWS V14.01,2013-03-07 21:00:00,
2013-03-07 15:03:00,30.7,16.5,30.33,SSE,162,9.0,9.0,55,0.00,,SCT120,0.00,VWS V14.01,2013-03-07 21:03:00,
2013-03-07 15:08:00,31.0,17.2,30.33,SSE,168,7.0,10.0,56,0.00,,SCT120,0.00,VWS V14.01,2013-03-07 21:08:00,
2013-03-07 15:13:00,31.2,17.3,30.33,SE,145,10.0,12.0,56,0.00,,SCT120,0.00,VWS V14.01,2013-03-07 21:13:00,
2013-03-07 15:15:00,31.0,17.2,30.33,SSE,149,7.0,12.0,56,0.00,,CLR,0.00,VWS V14.01,2013-03-07 21:15:00,
2013-03-07 15:18:00,31.0,16.3,30.33,SSE,149,5.0,7.0,54,0.00,,SCT120,0.00,VWS V14.01,2013-03-07 21:18:00,
2013-03-07 15:23:00,31.0,16.7,30.33,SSE,153,6.0,9.0,55,0.00,,SCT120,0.00,VWS V14.01,2013-03-07 21:23:00,
2013-03-07 15:28:00,31.2,17.3,30.33,South,169,7.0,9.0,56,0.00,,SCT120,0.00,VWS V14.01,2013-03-07 21:28:00,
2013-03-07 15:30:00,31.3,16.6,30.34,South,170,7.0,10.0,54,0.00,,CLR,0.00,VWS V14.01,2013-03-07 21:30:00,
2013-03-07 15:33:00,31.5,16.8,30.34,South,170,6.0,7.0,54,0.00,,CLR,0.00,VWS V14.01,2013-03-07 21:33:00,
2013-03-07 15:38:00,31.3,16.6,30.34,SSE,159,4.0,10.0,54,0.00,,CLR,0.00,VWS V14.01,2013-03-07 21:38:00,
2013-03-07 15:44:00,31.2,17.8,30.34,SSE,147,10.0,11.0,57,0.00,,CLR,0.00,VWS V14.01,2013-03-07 21:44:00,
2013-03-07 15:45:00,31.0,16.7,30.33,SE,140,7.0,11.0,55,0.00,,CLR,0.00,VWS V14.01,2013-03-07 21:45:00,
2013-03-07 15:49:00,30.9,16.6,30.33,SE,138,7.0,10.0,55,0.00,,CLR,0.00,VWS V14.01,2013-03-07 21:49:00,
2013-03-07 15:54:00,30.9,16.6,30.33,SE,139,5.0,12.0,55,0.00,,CLR,0.00,VWS V14.01,2013-03-07 21:54:00,
2013-03-07 15:59:00,30.9,16.6,30.33,SSE,158,7.0,12.0,55,0.00,,CLR,0.00,VWS V14.01,2013-03-07 21:59:00,
2013-03-07 16:00:00,30.9,16.2,30.32,SSE,158,3.0,12.0,54,0.00,,CLR,0.00,VWS V14.01,2013-03-07 22:00:00,
2013-03-07 16:04:00,30.7,16.5,30.32,SE,146,10.0,10.0,55,0.00,,CLR,0.00,VWS V14.01,2013-03-07 22:04:00,
2013-03-07 16:09:00,30.6,16.4,30.32,SE,139,10.0,11.0,55,0.00,,CLR,0.00,VWS V14.01,2013-03-07 22:09:00,
2013-03-07 16:15:00,30.6,15.5,30.32,ESE,122,10.0,11.0,53,0.00,,CLR,0.00,VWS V14.01,2013-03-07 22:15:00,
2013-03-07 16:20:00,30.9,15.8,30.32,SE,138,3.0,10.0,53,0.00,,CLR,0.00,VWS V14.01,2013-03-07 22:20:00,
2013-03-07 16:25:00,31.0,16.3,30.32,SE,137,2.0,10.0,54,0.00,,CLR,0.00,VWS V14.01,2013-03-07 22:25:00,
2013-03-07 16:30:00,31.0,15.9,30.32,SE,136,5.0,10.0,53,0.00,,CLR,0.00,VWS V14.01,2013-03-07 22:30:00,
2013-03-07 16:35:00,30.7,14.3,30.32,SE,132,11.0,12.0,50,0.00,,CLR,0.00,VWS V14.01,2013-03-07 22:35:00,
2013-03-07 16:40:00,30.3,14.8,30.32,SE,143,10.0,15.0,52,0.00,,CLR,0.00,VWS V14.01,2013-03-07 22:40:00,
2013-03-07 16:45:00,30.0,14.5,30.32,SE,130,10.0,15.0,52,0.00,,CLR,0.00,VWS V14.01,2013-03-07 22:45:00,
2013-03-07 16:50:00,30.0,15.0,30.33,SE,139,9.0,10.0,53,0.00,,CLR,0.00,VWS V14.01,2013-03-07 22:50:00,
2013-03-07 16:55:00,30.0,15.0,30.33,SE,130,8.0,10.0,53,0.00,,CLR,0.00,VWS V14.01,2013-03-07 22:55:00,
2013-03-07 17:00:00,29.5,14.5,30.33,SE,132,10.0,12.0,53,0.00,,CLR,0.00,VWS V14.01,2013-03-07 23:00:00,
2013-03-07 17:05:00,29.3,14.3,30.33,SE,132,5.0,7.0,53,0.00,,CLR,0.00,VWS V14.01,2013-03-07 23:05:00,
2013-03-07 17:10:00,28.7,14.6,30.33,SE,134,5.0,10.0,55,0.00,,CLR,0.00,VWS V14.01,2013-03-07 23:10:00,
2013-03-07 17:15:00,28.7,14.6,30.33,SE,137,5.0,10.0,55,0.00,,CLR,0.00,VWS V14.01,2013-03-07 23:15:00,
2013-03-07 17:16:00,28.7,14.6,30.33,SE,137,10.0,10.0,55,0.00,,CLR,0.00,VWS V14.01,2013-03-07 23:16:00,
2013-03-07 17:21:00,28.5,14.4,30.33,SE,133,6.0,7.0,55,0.00,,CLR,0.00,VWS V14.01,2013-03-07 23:21:00,
2013-03-07 17:26:00,28.4,14.3,30.33,SE,142,10.0,10.0,55,0.00,,CLR,0.00,VWS V14.01,2013-03-07 23:26:00,
2013-03-07 17:30:00,28.4,14.7,30.33,SE,133,5.0,12.0,56,0.00,,CLR,0.00,VWS V14.01,2013-03-07 23:30:00,
2013-03-07 17:31:00,28.4,14.3,30.33,SE,133,10.0,12.0,55,0.00,,CLR,0.00,VWS V14.01,2013-03-07 23:31:00,
2013-03-07 17:36:00,28.1,14.4,30.33,SE,133,3.0,6.0,56,0.00,,CLR,0.00,VWS V14.01,2013-03-07 23:36:00,
2013-03-07 17:41:00,27.6,14.0,30.33,SE,132,2.0,6.0,56,0.00,,CLR,0.00,VWS V14.01,2013-03-07 23:41:00,
2013-03-07 17:45:00,27.5,14.3,30.32,SE,136,6.0,10.0,57,0.00,,CLR,0.00,VWS V14.01,2013-03-07 23:45:00,
2013-03-07 17:46:00,27.5,13.9,30.33,SE,136,4.0,10.0,56,0.00,,CLR,0.00,VWS V14.01,2013-03-07 23:46:00,
2013-03-07 17:51:00,27.3,14.1,30.32,SE,134,5.0,8.0,57,0.00,,CLR,0.00,VWS V14.01,2013-03-07 23:51:00,
2013-03-07 17:56:00,27.2,14.4,30.32,SE,132,10.0,10.0,58,0.00,,CLR,0.00,VWS V14.01,2013-03-07 23:56:00,
2013-03-07 18:00:00,27.0,14.2,30.32,SE,131,5.0,11.0,58,0.00,,CLR,0.00,VWS V14.01,2013-03-08 00:00:00,
2013-03-07 18:02:00,27.0,14.2,30.32,SE,132,2.0,11.0,58,0.00,,CLR,0.00,VWS V14.01,2013-03-08 00:02:00,
2013-03-07 18:07:00,26.9,14.1,30.32,SE,130,6.0,6.0,58,0.00,,CLR,0.00,VWS V14.01,2013-03-08 00:07:00,
2013-03-07 18:12:00,26.7,13.9,30.32,SE,129,6.0,9.0,58,0.00,,CLR,0.00,VWS V14.01,2013-03-08 00:12:00,
2013-03-07 18:15:00,26.4,14.0,30.31,SE,126,3.0,9.0,59,0.00,,CLR,0.00,VWS V14.01,2013-03-08 00:15:00,
2013-03-07 18:17:00,26.4,13.6,30.32,SE,126,3.0,9.0,58,0.00,,CLR,0.00,VWS V14.01,2013-03-08 00:17:00,
2013-03-07 18:22:00,26.4,14.0,30.31,SE,127,7.0,8.0,59,0.00,,CLR,0.00,VWS V14.01,2013-03-08 00:22:00,
2013-03-07 18:27:00,26.3,13.9,30.31,SE,127,4.0,8.0,59,0.00,,CLR,0.00,VWS V14.01,2013-03-08 00:27:00,
2013-03-07 18:30:00,25.7,13.4,30.31,SE,127,5.0,8.0,59,0.00,,CLR,0.00,VWS V14.01,2013-03-08 00:30:00,
2013-03-07 18:32:00,25.8,13.9,30.31,SE,127,4.0,8.0,60,0.00,,CLR,0.00,VWS V14.01,2013-03-08 00:32:00,
2013-03-07 18:37:00,25.6,13.7,30.31,SE,127,5.0,6.0,60,0.00,,CLR,0.00,VWS V14.01,2013-03-08 00:37:00,
2013-03-07 18:42:00,25.6,14.0,30.31,SE,127,3.0,6.0,61,0.00,,CLR,0.00,VWS V14.01,2013-03-08 00:42:00,
2013-03-07 18:45:00,25.6,14.0,30.30,SE,125,8.0,8.0,61,0.00,,CLR,0.00,VWS V14.01,2013-03-08 00:45:00,
2013-03-07 18:47:00,25.6,14.0,30.30,SE,125,3.0,7.0,61,0.00,,CLR,0.00,VWS V14.01,2013-03-08 00:47:00,
2013-03-07 18:52:00,25.6,14.0,30.30,ESE,123,4.0,8.0,61,0.00,,CLR,0.00,VWS V14.01,2013-03-08 00:52:00,
2013-03-07 18:58:00,25.6,14.0,30.30,ESE,122,5.0,9.0,61,0.00,,CLR,0.00,VWS V14.01,2013-03-08 00:58:00,
2013-03-07 19:00:00,25.3,13.8,30.30,ESE,122,5.0,9.0,61,0.00,,CLR,0.00,VWS V14.01,2013-03-08 01:00:00,
2013-03-07 19:03:00,25.3,13.8,30.30,ESE,122,5.0,9.0,61,0.00,,CLR,0.00,VWS V14.01,2013-03-08 01:03:00,
2013-03-07 19:08:00,25.1,13.6,30.30,ESE,121,6.0,8.0,61,0.00,,CLR,0.00,VWS V14.01,2013-03-08 01:08:00,
2013-03-07 19:13:00,25.3,13.8,30.30,ESE,117,6.0,8.0,61,0.00,,CLR,0.00,VWS V14.01,2013-03-08 01:13:00,
2013-03-07 19:15:00,25.4,13.8,30.30,ESE,116,3.0,8.0,61,0.00,,CLR,0.00,VWS V14.01,2013-03-08 01:15:00,
2013-03-07 19:19:00,25.4,13.8,30.30,ESE,115,7.0,9.0,61,0.00,,CLR,0.00,VWS V14.01,2013-03-08 01:19:00,
2013-03-07 19:24:00,25.6,14.0,30.30,ESE,113,5.0,10.0,61,0.00,,CLR,0.00,VWS V14.01,2013-03-08 01:24:00,
2013-03-07 19:29:00,25.3,13.0,30.30,ESE,116,7.0,10.0,59,0.00,,CLR,0.00,VWS V14.01,2013-03-08 01:29:00,
2013-03-07 19:30:00,24.7,13.2,30.30,ESE,116,7.0,10.0,61,0.00,,CLR,0.00,VWS V14.01,2013-03-08 01:30:00,
2013-03-07 19:34:00,24.5,13.0,30.30,ESE,116,5.0,7.0,61,0.00,,CLR,0.00,VWS V14.01,2013-03-08 01:34:00,
2013-03-07 19:39:00,24.2,13.1,30.30,ESE,118,4.0,7.0,62,0.00,,CLR,0.00,VWS V14.01,2013-03-08 01:39:00,
2013-03-07 19:44:00,24.4,13.3,30.30,ESE,119,3.0,11.0,62,0.00,,CLR,0.00,VWS V14.01,2013-03-08 01:44:00,
2013-03-07 19:45:00,24.4,13.3,30.31,ESE,120,5.0,11.0,62,0.00,,CLR,0.00,VWS V14.01,2013-03-08 01:45:00,
2013-03-07 19:49:00,24.5,13.4,30.31,ESE,120,6.0,7.0,62,0.00,,CLR,0.00,VWS V14.01,2013-03-08 01:49:00,
2013-03-07 19:54:00,24.7,13.6,30.31,ESE,119,6.0,8.0,62,0.00,,CLR,0.00,VWS V14.01,2013-03-08 01:54:00,
2013-03-07 19:59:00,24.2,13.4,30.31,ESE,119,4.0,8.0,63,0.00,,CLR,0.00,VWS V14.01,2013-03-08 01:59:00,
2013-03-07 20:00:00,24.2,13.1,30.31,ESE,119,4.0,8.0,62,0.00,,CLR,0.00,VWS V14.01,2013-03-08 02:00:00,
2013-03-07 20:04:00,24.4,13.3,30.31,ESE,119,3.0,4.0,62,0.00,,CLR,0.00,VWS V14.01,2013-03-08 02:04:00,
2013-03-07 20:10:00,23.8,13.1,30.31,ESE,119,2.0,5.0,63,0.00,,CLR,0.00,VWS V14.01,2013-03-08 02:10:00,
2013-03-07 20:15:00,23.2,12.8,30.31,ESE,119,2.0,5.0,64,0.00,,CLR,0.00,VWS V14.01,2013-03-08 02:15:00,
2013-03-07 20:20:00,22.9,12.6,30.31,ESE,118,5.0,5.0,64,0.00,,CLR,0.00,VWS V14.01,2013-03-08 02:20:00,
2013-03-07 20:25:00,22.9,12.6,30.31,ESE,116,5.0,7.0,64,0.00,,CLR,0.00,VWS V14.01,2013-03-08 02:25:00,
2013-03-07 20:30:00,23.0,13.0,30.31,ESE,113,3.0,7.0,65,0.00,,CLR,0.00,VWS V14.01,2013-03-08 02:30:00,
2013-03-07 20:35:00,23.3,12.9,30.30,ESE,112,3.0,6.0,64,0.00,,CLR,0.00,VWS V14.01,2013-03-08 02:35:00,
2013-03-07 20:40:00,23.0,13.0,30.30,ESE,112,4.0,6.0,65,0.00,,CLR,0.00,VWS V14.01,2013-03-08 02:40:00,
2013-03-07 20:45:00,22.4,12.4,30.30,ESE,112,2.0,6.0,65,0.00,,CLR,0.00,VWS V14.01,2013-03-08 02:45:00,
2013-03-07 20:50:00,21.8,11.9,30.31,ESE,112,5.0,5.0,65,0.00,,CLR,0.00,VWS V14.01,2013-03-08 02:50:00,
2013-03-07 20:56:00,20.8,11.6,30.31,ESE,112,3.0,6.0,67,0.00,,CLR,0.00,VWS V14.01,2013-03-08 02:56:00,
2013-03-07 21:00:00,20.0,11.1,30.30,ESE,112,5.0,7.0,68,0.00,,CLR,0.00,VWS V14.01,2013-03-08 03:00:00,
2013-03-07 21:01:00,20.2,11.4,30.31,ESE,112,3.0,7.0,68,0.00,,CLR,0.00,VWS V14.01,2013-03-08 03:01:00,
2013-03-07 21:06:00,19.7,11.2,30.30,ESE,112,6.0,6.0,69,0.00,,CLR,0.00,VWS V14.01,2013-03-08 03:06:00,
2013-03-07 21:11:00,20.2,12.3,30.30,ESE,112,4.0,7.0,71,0.00,,CLR,0.00,VWS V14.01,2013-03-08 03:11:00,
2013-03-07 21:15:00,22.1,12.5,30.28,ESE,113,6.0,10.0,66,0.00,,CLR,0.00,VWS V14.01,2013-03-08 03:15:00,
2013-03-07 21:16:00,21.4,12.5,30.30,ESE,112,6.0,7.0,68,0.00,,CLR,0.00,VWS V14.01,2013-03-08 03:16:00,
2013-03-07 21:21:00,22.4,12.4,30.28,ESE,117,9.0,10.0,65,0.00,,CLR,0.00,VWS V14.01,2013-03-08 03:21:00,
2013-03-07 21:26:00,23.2,12.8,30.28,ESE,112,11.0,14.0,64,0.00,,CLR,0.00,VWS V14.01,2013-03-08 03:26:00,
2013-03-07 21:30:00,23.8,13.1,30.27,ESE,120,9.0,14.0,63,0.00,,CLR,0.00,VWS V14.01,2013-03-08 03:30:00,
2013-03-07 21:31:00,23.6,12.9,30.28,ESE,113,10.0,14.0,63,0.00,,CLR,0.00,VWS V14.01,2013-03-08 03:31:00,
2013-03-07 21:36:00,23.9,12.8,30.27,ESE,103,0.0,14.0,62,0.00,,CLR,0.00,VWS V14.01,2013-03-08 03:36:00,
2013-03-07 21:41:00,23.9,12.8,30.27,ESE,118,6.0,14.0,62,0.00,,CLR,0.00,VWS V14.01,2013-03-08 03:41:00,
2013-03-07 21:45:00,23.8,13.1,30.27,ESE,117,7.0,14.0,63,0.00,,CLR,0.00,VWS V14.01,2013-03-08 03:45:00,
2013-03-07 21:46:00,23.8,13.1,30.27,ESE,113,7.0,14.0,63,0.00,,CLR,0.00,VWS V14.01,2013-03-08 03:46:00,
2013-03-07 21:51:00,23.6,12.9,30.27,ESE,116,3.0,10.0,63,0.00,,CLR,0.00,VWS V14.01,2013-03-08 03:51:00,
2013-03-07 21:56:00,23.5,12.4,30.27,ESE,117,3.0,10.0,62,0.00,,CLR,0.00,VWS V14.01,2013-03-08 03:56:00,
2013-03-07 22:00:00,23.3,12.6,30.28,ESE,117,3.0,10.0,63,0.00,,CLR,0.00,VWS V14.01,2013-03-08 04:00:00,
2013-03-07 22:01:00,23.5,12.8,30.27,ESE,116,5.0,10.0,63,0.00,,CLR,0.00,VWS V14.01,2013-03-08 04:01:00,
2013-03-07 22:06:00,23.0,12.6,30.28,ESE,117,5.0,5.0,64,0.00,,CLR,0.00,VWS V14.01,2013-03-08 04:06:00,
2013-03-07 22:11:00,22.7,12.7,30.28,ESE,118,5.0,10.0,65,0.00,,CLR,0.00,VWS V14.01,2013-03-08 04:11:00,